Divinopolis, Brazil
Current Conditions -  °F | °C
As of 7:00 PM on Saturday 25 Oct 2014 (Local Time) from SBPR Reporting Station
Broken Clouds Broken Clouds  
Wind Chill: 25°   Ceiling: 2500
Heat Index: 26°   Visibility: 6mi
Dew Point: 16°   Wind: 12mph
Humidity: 57%   Direction: 240°WSW
Pressure: 29.97"   Gusts: NA
Location:  20.15°S, 44.9°W
Report Text: SBPR 252100Z 24010KT 9999 BKN025 BKN080 25/16 Q1015
Loading
Personal Weather Stations






























Interactive Weather Map
Tropical Storm Tracking
New forecast layout! Learn more

10-Day Weather Forecast

Advertisements
Track Severe Weather on mobile